Time;durP1;ratioP1;P1;durP2;ratioP2;P2;SDS_P1;SDS_P2;PMS_P1;PMS_P2;Temp;Humidity;BMP_temperature;BMP_pressure;BME280_temperature;BME280_humidity;BME280_pressure;Samples;Min_cycle;Max_cycle;Signal;HPM_P1;HPM_P2
2022/11/10 00:00:22;;;;;;;41.77;33.03;;;;;;;9.69;100.00;102147.63;2069765;28;20680;-69
2022/11/10 00:01:23;;;;;;;41.50;32.17;;;;;;;9.68;100.00;102152.34;2071045;28;20206;-69
2022/11/10 00:02:23;;;;;;;39.30;32.27;;;;;;;9.66;100.00;102153.94;2069312;28;20194;-69
2022/11/10 00:03:27;;;;;;;39.50;32.63;;;;;;;9.30;100.00;102094.88;2070948;28;21121;-69
2022/11/10 00:04:27;;;;;;;43.63;32.50;;;;;;;9.63;100.00;102149.97;2069700;28;20180;-69
2022/11/10 00:05:28;;;;;;;37.50;31.57;;;;;;;9.64;100.00;102157.09;2071177;28;20480;-69
2022/11/10 00:06:29;;;;;;;44.20;34.30;;;;;;;9.66;100.00;102159.47;2071032;28;20183;-69
2022/11/10 00:07:29;;;;;;;46.80;37.17;;;;;;;9.64;100.00;102159.06;2070281;28;20529;-69
2022/11/10 00:08:30;;;;;;;52.13;39.77;;;;;;;9.15;100.00;102090.47;2070403;28;20278;-70
2022/11/10 00:09:30;;;;;;;52.57;40.93;;;;;;;8.66;100.00;102009.22;2070467;28;20278;-70
2022/11/10 00:10:31;;;;;;;58.10;42.20;;;;;;;9.34;100.00;102122.56;2069743;28;20195;-70
2022/11/10 00:11:32;;;;;;;55.10;42.90;;;;;;;9.46;100.00;102153.44;2070299;28;20238;-69
2022/11/10 00:12:33;;;;;;;46.20;35.80;;;;;;;9.43;100.00;102154.22;2070480;28;20579;-69
2022/11/10 00:16:59;;;;;;;42.17;32.80;;;;;;;9.39;100.00;102149.84;2070327;28;20205;-69
2022/11/10 00:17:35;;;;;;;36.38;29.75;;;;;;;8.46;100.00;102038.28;2069730;28;20191;-69
2022/11/10 00:18:35;;;;;;;34.63;29.10;;;;;;;8.26;100.00;102010.09;2070141;28;20728;-69
2022/11/10 00:19:36;;;;;;;27.80;23.87;;;;;;;9.10;100.00;102154.44;2070565;28;20565;-69
2022/11/10 00:20:36;;;;;;;24.70;21.97;;;;;;;9.08;100.00;102158.75;2070242;28;20204;-69
2022/11/10 00:21:37;;;;;;;20.83;18.63;;;;;;;8.50;100.00;102069.50;2070676;28;20252;-69
2022/11/10 00:22:38;;;;;;;21.53;19.30;;;;;;;9.03;100.00;102159.91;2070245;28;20189;-69
2022/11/10 00:23:39;;;;;;;26.93;23.57;;;;;;;8.97;100.00;102155.13;2071538;28;20224;-69
2022/11/10 00:24:39;;;;;;;39.77;31.87;;;;;;;9.03;100.00;102170.19;2070772;28;20433;-69
2022/11/10 00:25:40;;;;;;;43.60;33.70;;;;;;;8.77;100.00;102154.56;2070239;28;20255;-69
2022/11/10 00:26:40;;;;;;;45.10;34.70;;;;;;;8.90;100.00;102179.94;2070339;28;20190;-69
2022/11/10 00:27:40;;;;;;;43.97;34.40;;;;;;;8.90;100.00;102180.75;2070953;28;20682;-69
2022/11/10 00:28:42;;;;;;;47.83;35.20;;;;;;;8.91;100.00;102184.31;2069958;28;20269;-69
2022/11/10 00:29:43;;;;;;;46.55;34.28;;;;;;;8.73;100.00;102153.78;2070166;28;20564;-69
2022/11/10 00:30:43;;;;;;;43.90;34.80;;;;;;;8.84;100.00;102184.25;2070190;28;20182;-69
2022/11/10 00:31:43;;;;;;;42.40;34.57;;;;;;;8.79;100.00;102196.47;2070540;28;20178;-69
2022/11/10 00:32:46;;;;;;;46.43;35.60;;;;;;;8.04;100.00;102071.84;2071212;28;20956;-69
2022/11/10 00:33:47;;;;;;;37.72;29.98;;;;;;;8.83;100.00;102185.44;2070382;28;20282;-69
2022/11/10 00:34:47;;;;;;;43.60;33.47;;;;;;;8.86;100.00;102188.22;2070532;28;20181;-69
2022/11/10 00:35:47;;;;;;;42.23;32.27;;;;;;;8.87;100.00;102184.28;2069682;28;20272;-69
2022/11/10 00:36:48;;;;;;;37.57;30.33;;;;;;;8.89;100.00;102184.69;2070732;28;20277;-69
2022/11/10 00:37:49;;;;;;;41.40;30.60;;;;;;;8.16;100.00;102062.47;2071188;28;20182;-69
2022/11/10 00:38:50;;;;;;;40.60;30.70;;;;;;;8.93;100.00;102181.97;2069357;28;20193;-69
2022/11/10 00:39:51;;;;;;;39.07;30.87;;;;;;;8.96;100.00;102178.44;2069761;28;20192;-69
2022/11/10 00:40:51;;;;;;;38.77;30.97;;;;;;;8.67;100.00;102133.19;2070367;28;20214;-69
2022/11/10 00:41:52;;;;;;;38.70;31.30;;;;;;;8.99;100.00;102178.47;2071221;28;20190;-69
2022/11/10 00:42:52;;;;;;;39.83;32.83;;;;;;;9.04;100.00;102174.53;2070362;28;20629;-69
2022/11/10 00:43:53;;;;;;;41.53;33.33;;;;;;;8.29;100.00;102069.31;2071775;28;20203;-69
2022/11/10 00:44:53;;;;;;;42.03;31.60;;;;;;;9.04;100.00;102189.16;2071527;28;20203;-69
2022/11/10 00:45:54;;;;;;;39.17;32.13;;;;;;;8.85;100.00;102147.94;2071735;28;20221;-69
2022/11/10 00:46:54;;;;;;;36.70;30.33;;;;;;;9.07;100.00;102173.78;2071321;28;20187;-69
2022/11/10 00:47:54;;;;;;;40.37;31.37;;;;;;;9.08;100.00;102176.13;2071790;28;20650;-69
2022/11/10 00:48:55;;;;;;;38.67;31.57;;;;;;;9.09;100.00;102174.97;2071264;28;20632;-69
2022/11/10 00:49:55;;;;;;;40.30;30.70;;;;;;;9.12;100.00;102176.97;2071162;28;20250;-68
2022/11/10 00:50:56;;;;;;;37.83;30.20;;;;;;;8.07;100.00;102015.88;2070556;28;20778;-69
2022/11/10 00:51:56;;;;;;;38.27;30.57;;;;;;;9.13;100.00;102180.53;2072379;28;20192;-69
2022/11/10 00:52:57;;;;;;;31.33;25.40;;;;;;;9.14;100.00;102169.09;2071873;28;20216;-70
2022/11/10 00:53:57;;;;;;;28.80;23.73;;;;;;;9.13;100.00;102172.22;2071986;28;20190;-70
2022/11/10 00:54:58;;;;;;;30.53;25.43;;;;;;;8.99;100.00;102147.25;2071833;28;20251;-69
2022/11/10 00:55:58;;;;;;;35.07;25.57;;;;;;;9.13;100.00;102169.47;2071720;28;20211;-69
2022/11/10 00:56:59;;;;;;;35.20;26.60;;;;;;;9.12;100.00;102165.13;2071202;28;20185;-69
2022/11/10 00:57:59;;;;;;;34.17;26.63;;;;;;;9.13;100.00;102169.47;2072498;28;20322;-69
2022/11/10 00:58:59;;;;;;;35.93;26.87;;;;;;;9.01;100.00;102144.88;2072195;28;20212;-70
2022/11/10 01:00:00;;;;;;;38.97;30.43;;;;;;;9.12;100.00;102170.66;2071099;28;20268;-69
2022/11/10 01:01:02;;;;;;;38.27;31.07;;;;;;;9.10;100.00;102164.69;2071651;28;20616;-70
2022/11/10 01:02:02;;;;;;;37.80;28.37;;;;;;;8.28;100.00;102034.59;2071899;28;20189;-69
2022/11/10 01:03:02;;;;;;;33.20;27.97;;;;;;;9.13;100.00;102166.69;2071090;28;20474;-69
2022/11/10 01:04:03;;;;;;;36.70;29.73;;;;;;;9.14;100.00;102165.50;2072156;28;20194;-69
2022/11/10 01:05:04;;;;;;;39.23;31.67;;;;;;;9.16;100.00;102160.38;2072226;28;20183;-69
2022/11/10 01:06:07;;;;;;;33.27;27.13;;;;;;;9.17;100.00;102154.47;2071611;28;20194;-69
2022/11/10 01:07:07;;;;;;;39.20;30.73;;;;;;;9.09;100.00;102163.91;2070961;28;20663;-69
2022/11/10 01:08:08;;;;;;;42.23;32.27;;;;;;;9.11;100.00;102158.78;2072152;28;20447;-69
2022/11/10 01:09:08;;;;;;;38.97;31.27;;;;;;;9.06;100.00;102161.09;2072445;28;20593;-69
2022/11/10 01:10:09;;;;;;;34.50;28.93;;;;;;;9.12;100.00;102168.66;2070769;28;20287;-69
2022/11/10 01:11:22;;;;;;;39.57;31.70;;;;;;;9.05;100.00;102160.31;2071478;28;20295;-69
2022/11/10 01:12:22;;;;;;;38.17;30.10;;;;;;;9.10;100.00;102159.16;2071742;28;20197;-69
2022/11/10 01:13:23;;;;;;;39.87;30.97;;;;;;;9.09;100.00;102157.56;2072036;28;20447;-69
2022/11/10 01:14:23;;;;;;;34.43;28.50;;;;;;;9.11;100.00;102158.78;2071689;28;20212;-69
2022/11/10 01:15:24;;;;;;;33.57;27.27;;;;;;;8.18;100.00;102004.88;2071955;28;20178;-70
2022/11/10 01:16:27;;;;;;;29.77;24.90;;;;;;;9.14;100.00;102159.97;2071020;28;20189;-69
2022/11/10 01:17:29;;;;;;;34.77;27.57;;;;;;;9.13;100.00;102159.19;2072410;28;20186;-69
2022/11/10 01:18:29;;;;;;;29.73;24.90;;;;;;;9.14;100.00;102160.78;2071312;28;21013;-69
2022/11/10 01:19:29;;;;;;;35.93;27.67;;;;;;;9.17;100.00;102156.47;2072246;28;20879;-70
2022/11/10 01:20:32;;;;;;;36.50;29.43;;;;;;;9.13;100.00;102152.88;2070386;28;20876;-69
2022/11/10 01:21:33;;;;;;;34.97;28.73;;;;;;;9.14;100.00;102154.44;2072086;28;20189;-69
2022/11/10 01:22:34;;;;;;;37.60;29.47;;;;;;;9.15;100.00;102150.50;2071484;28;20572;-69
2022/11/10 01:23:35;;;;;;;34.70;27.50;;;;;;;9.16;100.00;102152.09;2071824;28;20348;-69
2022/11/10 01:24:35;;;;;;;32.23;27.03;;;;;;;9.14;100.00;102146.16;2071406;28;20424;-69
2022/11/10 01:25:35;;;;;;;32.03;27.17;;;;;;;9.13;100.00;102145.34;2071890;28;20613;-70
2022/11/10 01:26:36;;;;;;;32.80;26.00;;;;;;;9.05;100.00;102135.44;2072166;28;20225;-69
2022/11/10 01:27:36;;;;;;;32.53;25.87;;;;;;;9.09;100.00;102150.09;2072222;28;20193;-70
2022/11/10 01:28:37;;;;;;;36.80;29.30;;;;;;;8.94;100.00;102123.53;2071215;28;20689;-69
2022/11/10 01:29:37;;;;;;;29.90;24.93;;;;;;;9.09;100.00;102147.31;2070757;28;20244;-69
2022/11/10 01:30:38;;;;;;;29.23;24.50;;;;;;;9.07;100.00;102146.91;2071210;28;20204;-69
2022/11/10 01:31:38;;;;;;;32.27;26.00;;;;;;;9.04;100.00;102144.13;2071583;28;20213;-69
2022/11/10 01:32:39;;;;;;;34.73;27.03;;;;;;;9.05;100.00;102142.94;2071588;28;20182;-69
2022/11/10 01:33:39;;;;;;;37.30;27.53;;;;;;;9.03;100.00;102142.53;2071503;28;20245;-70
2022/11/10 01:34:40;;;;;;;31.43;22.77;;;;;;;9.03;100.00;102148.84;2072432;28;20303;-69
2022/11/10 01:35:40;;;;;;;31.83;24.17;;;;;;;9.02;100.00;102146.47;2071803;28;20185;-69
2022/11/10 01:36:40;;;;;;;33.00;22.60;;;;;;;9.02;100.00;102141.72;2071210;28;20200;-69
2022/11/10 01:37:41;;;;;;;30.10;21.47;;;;;;;8.97;100.00;102133.03;2072301;28;20238;-70
2022/11/10 01:38:42;;;;;;;29.80;21.73;;;;;;;8.94;100.00;102136.53;2070553;28;20265;-70
2022/11/10 01:39:43;;;;;;;32.57;21.97;;;;;;;8.92;100.00;102134.16;2071198;28;20195;-69
2022/11/10 01:40:44;;;;;;;30.03;22.83;;;;;;;8.91;100.00;102137.31;2071054;28;21030;-70
2022/11/10 01:41:44;;;;;;;27.10;20.63;;;;;;;8.72;100.00;102112.69;2070867;28;20187;-69
2022/11/10 01:42:52;;;;;;;25.07;18.43;;;;;;;8.82;100.00;102134.88;2070835;28;20228;-69
2022/11/10 01:43:52;;;;;;;19.33;16.13;;;;;;;8.80;100.00;102140.00;2071572;28;20224;-69
2022/11/10 01:45:23;;;;;;;17.73;15.83;;;;;;;8.72;100.00;102138.34;2072365;28;20438;-69
2022/11/10 01:46:25;;;;;;;17.10;15.27;;;;;;;8.66;100.00;102137.13;2070893;28;20559;-69
2022/11/10 01:47:25;;;;;;;16.93;15.10;;;;;;;8.46;100.00;102116.44;2071009;28;20970;-70
2022/11/10 01:48:32;;;;;;;17.97;15.53;;;;;;;8.61;100.00;102137.47;2071308;28;20954;-69
2022/11/10 01:49:34;;;;;;;17.67;15.23;;;;;;;8.56;100.00;102137.81;2071309;28;20563;-69
2022/11/10 01:50:39;;;;;;;18.97;16.20;;;;;;;8.51;100.00;102131.88;2070393;28;20844;-69
2022/11/10 01:51:51;;;;;;;22.10;18.93;;;;;;;8.48;100.00;102138.97;2071360;28;20535;-69
2022/11/10 01:52:56;;;;;;;24.60;19.00;;;;;;;7.61;100.00;102005.56;2071091;28;20434;-69
2022/11/10 01:54:00;;;;;;;22.10;19.80;;;;;;;8.40;100.00;102126.25;2072105;28;20223;-69
2022/11/10 01:55:00;;;;;;;25.10;22.25;;;;;;;8.39;100.00;102135.72;2070384;28;20454;-70
2022/11/10 01:56:02;;;;;;;27.07;22.67;;;;;;;7.37;100.00;101992.28;2070917;28;20186;-69
2022/11/10 01:57:06;;;;;;;27.77;23.75;;;;;;;8.39;100.00;102138.47;2070789;28;20199;-69
2022/11/10 01:58:07;;;;;;;25.97;23.17;;;;;;;8.29;100.00;102138.38;2071796;28;20195;-70
2022/11/10 01:59:12;;;;;;;25.57;22.27;;;;;;;8.35;100.00;102140.41;2071795;28;20451;-70
2022/11/10 02:00:13;;;;;;;24.70;21.27;;;;;;;7.42;100.00;101998.28;2069993;28;20459;-69
2022/11/10 02:01:14;;;;;;;23.90;21.40;;;;;;;8.32;100.00;102140.38;2071145;28;20573;-70
2022/11/10 02:02:24;;;;;;;27.70;21.83;;;;;;;8.29;100.00;102144.69;2071009;28;20355;-69
2022/11/10 02:03:36;;;;;;;27.30;21.65;;;;;;;8.28;100.00;102142.31;2071138;28;20669;-69
2022/11/10 02:04:38;;;;;;;27.87;23.03;;;;;;;8.22;100.00;102147.41;2071526;28;20954;-69
2022/11/10 02:05:39;;;;;;;26.35;23.33;;;;;;;8.21;100.00;102139.50;2071274;28;20417;-69
2022/11/10 02:06:42;;;;;;;29.23;25.07;;;;;;;8.10;100.00;102139.34;2072023;28;20686;-69
2022/11/10 02:07:43;;;;;;;27.90;23.20;;;;;;;8.14;100.00;102148.47;2072032;28;20581;-69
2022/11/10 02:08:45;;;;;;;34.70;26.70;;;;;;;7.98;100.00;102131.34;2071515;28;20439;-69
2022/11/10 02:09:45;;;;;;;33.37;27.10;;;;;;;8.02;100.00;102145.16;2071113;28;20231;-69
2022/11/10 02:10:46;;;;;;;35.03;28.80;;;;;;;8.00;100.00;102159.34;2070594;28;20454;-69
2022/11/10 02:11:50;;;;;;;39.43;29.47;;;;;;;7.96;100.00;102160.50;2071410;28;20232;-69
2022/11/10 02:12:51;;;;;;;32.63;28.58;;;;;;;7.99;100.00;102160.53;2071160;28;20195;-69
2022/11/10 02:13:52;;;;;;;35.17;27.73;;;;;;;7.96;100.00;102166.00;2070526;28;20625;-69
2022/11/10 02:14:52;;;;;;;36.38;29.50;;;;;;;8.00;100.00;102169.59;2071645;28;20196;-69
2022/11/10 02:15:53;;;;;;;33.50;27.73;;;;;;;7.99;100.00;102168.03;2071422;28;20190;-68
2022/11/10 02:16:53;;;;;;;38.07;29.37;;;;;;;7.92;100.00;102163.22;2071231;28;20192;-69
2022/11/10 02:17:54;;;;;;;34.70;26.17;;;;;;;8.02;100.00;102173.59;2071703;28;20567;-69
2022/11/10 02:18:54;;;;;;;31.83;25.53;;;;;;;8.06;100.00;102162.56;2070944;28;20192;-69
2022/11/10 02:19:59;;;;;;;32.23;25.37;;;;;;;7.88;100.00;102136.72;2071233;28;20248;-69
2022/11/10 02:21:06;;;;;;;33.87;24.10;;;;;;;8.09;100.00;102176.41;2070764;28;20213;-69
2022/11/10 02:22:06;;;;;;;32.10;27.70;;;;;;;8.04;100.00;102173.22;2071540;28;20873;-69
2022/11/10 02:23:29;;;;;;;32.27;26.10;;;;;;;8.08;100.00;102163.78;2071306;28;20311;-69
2022/11/10 02:24:30;;;;;;;36.13;28.67;;;;;;;8.02;100.00;102173.59;2070743;28;20647;-69
2022/11/10 02:25:31;;;;;;;35.00;26.67;;;;;;;8.02;100.00;102170.00;2071230;28;20879;-69
2022/11/10 02:26:32;;;;;;;34.10;28.30;;;;;;;8.04;100.00;102171.22;2070702;28;20236;-68
2022/11/10 02:27:33;;;;;;;37.27;27.87;;;;;;;6.53;100.00;101939.72;2071013;28;20439;-69
2022/11/10 02:28:36;;;;;;;29.03;23.30;;;;;;;8.05;100.00;102172.03;2071445;28;20279;-69
2022/11/10 02:29:37;;;;;;;37.37;28.77;;;;;;;8.06;100.00;102176.38;2071451;28;20250;-69
2022/11/10 02:30:37;;;;;;;35.00;27.17;;;;;;;8.05;100.00;102172.81;2071130;28;20442;-69
2022/11/10 02:31:38;;;;;;;36.27;27.80;;;;;;;8.02;100.00;102179.09;2070584;28;20205;-69
2022/11/10 02:32:38;;;;;;;35.47;28.80;;;;;;;7.73;100.00;102137.72;2070790;28;20195;-69
2022/11/10 02:33:39;;;;;;;34.37;26.70;;;;;;;8.05;100.00;102186.63;2071329;28;20201;-69
2022/11/10 02:34:39;;;;;;;35.10;28.17;;;;;;;7.96;100.00;102172.34;2070041;28;20188;-69
2022/11/10 02:35:40;;;;;;;32.80;27.20;;;;;;;8.04;100.00;102184.25;2071349;28;20198;-69
2022/11/10 02:36:40;;;;;;;39.40;28.00;;;;;;;7.74;100.00;102136.59;2070324;28;20182;-69
2022/11/10 02:37:41;;;;;;;34.77;27.23;;;;;;;8.09;100.00;102183.91;2071417;28;20219;-69
2022/11/10 02:38:41;;;;;;;37.50;27.43;;;;;;;8.06;100.00;102192.94;2071908;28;20264;-69
2022/11/10 02:39:42;;;;;;;29.47;24.27;;;;;;;8.06;100.00;102182.72;2070907;28;20188;-69
2022/11/10 02:40:42;;;;;;;35.03;27.47;;;;;;;8.07;100.00;102180.72;2070437;28;20278;-69
2022/11/10 02:41:42;;;;;;;27.17;22.63;;;;;;;8.10;100.00;102182.75;2070940;28;20657;-69
2022/11/10 02:42:43;;;;;;;32.50;26.43;;;;;;;8.05;100.00;102166.50;2078460;28;20207;-69
2022/11/10 02:43:44;;;;;;;29.93;23.40;;;;;;;8.16;100.00;102181.22;2079289;28;20192;-69
2022/11/10 02:44:44;;;;;;;24.90;20.67;;;;;;;8.11;100.00;102174.06;2069950;28;20192;-69
2022/11/10 02:45:45;;;;;;;23.03;18.67;;;;;;;8.19;100.00;102174.94;2070970;28;20185;-69
2022/11/10 02:46:45;;;;;;;19.67;16.40;;;;;;;8.20;100.00;102177.34;2071509;28;20189;-69
2022/11/10 02:47:46;;;;;;;16.80;14.83;;;;;;;8.19;100.00;102170.22;2070751;28;20640;-69
2022/11/10 02:48:46;;;;;;;18.80;15.20;;;;;;;8.19;100.00;102174.94;2071208;28;20191;-69
2022/11/10 02:49:47;;;;;;;18.57;16.10;;;;;;;8.17;100.00;102169.00;2070824;28;20192;-69
2022/11/10 02:50:47;;;;;;;17.23;15.53;;;;;;;7.47;100.00;102074.38;2070717;28;20242;-69
2022/11/10 02:51:48;;;;;;;18.33;16.37;;;;;;;7.98;100.00;102153.41;2070842;28;20196;-69
2022/11/10 02:52:48;;;;;;;16.10;14.47;;;;;;;8.11;100.00;102179.56;2070736;28;20184;-69
2022/11/10 02:53:49;;;;;;;18.80;15.67;;;;;;;8.12;100.00;102177.63;2071507;28;20187;-69
2022/11/10 02:54:49;;;;;;;17.70;15.63;;;;;;;8.08;100.00;102174.81;2070285;28;20667;-69
2022/11/10 02:55:49;;;;;;;21.80;15.90;;;;;;;8.07;100.00;102172.44;2070158;28;20662;-69
2022/11/10 02:56:50;;;;;;;20.50;16.23;;;;;;;8.04;100.00;102174.00;2070906;28;20701;-69
2022/11/10 02:57:50;;;;;;;19.00;16.97;;;;;;;8.03;100.00;102166.06;2071381;28;20199;-69
2022/11/10 02:58:51;;;;;;;23.03;19.57;;;;;;;7.89;100.00;102157.66;2070846;28;20260;-69
2022/11/10 02:59:51;;;;;;;26.53;21.07;;;;;;;7.96;100.00;102175.09;2071138;28;20202;-69
2022/11/10 03:00:52;;;;;;;27.37;22.97;;;;;;;7.94;100.00;102171.91;2070620;28;20192;-69
2022/11/10 03:01:52;;;;;;;27.23;22.73;;;;;;;7.92;100.00;102165.97;2071226;28;20265;-69
2022/11/10 03:02:57;;;;;;;26.90;23.00;;;;;;;7.91;100.00;102169.91;2070561;28;20202;-69
2022/11/10 03:03:57;;;;;;;27.27;22.70;;;;;;;7.90;100.00;102173.03;2071732;28;20555;-69
2022/11/10 03:04:58;;;;;;;28.27;23.37;;;;;;;7.89;100.00;102177.75;2070930;28;20292;-69
2022/11/10 03:05:59;;;;;;;28.90;23.00;;;;;;;7.89;100.00;102175.00;2069885;28;20269;-69
2022/11/10 03:06:59;;;;;;;27.13;23.00;;;;;;;7.89;100.00;102168.69;2070229;28;20195;-69
2022/11/10 03:08:02;;;;;;;27.77;22.03;;;;;;;7.27;100.00;102087.53;2070897;28;20198;-69
2022/11/10 03:09:02;;;;;;;30.77;22.98;;;;;;;7.89;100.00;102177.75;2070977;28;20205;-69
2022/11/10 03:10:05;;;;;;;29.33;22.40;;;;;;;7.89;100.00;102176.97;2070697;28;20209;-69
2022/11/10 03:11:05;;;;;;;28.48;22.35;;;;;;;7.80;100.00;102163.44;2070277;28;20193;-69
2022/11/10 03:12:05;;;;;;;26.80;22.90;;;;;;;7.87;100.00;102179.31;2069986;28;20220;-69
2022/11/10 03:13:06;;;;;;;27.60;23.20;;;;;;;7.87;100.00;102176.53;2071316;28;20205;-69
2022/11/10 03:14:06;;;;;;;24.63;21.60;;;;;;;7.81;100.00;102169.78;2071130;28;20718;-69
2022/11/10 03:15:07;;;;;;;26.00;21.33;;;;;;;7.86;100.00;102178.53;2071324;28;20623;-69
2022/11/10 03:16:08;;;;;;;26.98;21.40;;;;;;;7.81;100.00;102170.59;2069655;28;20189;-69
2022/11/10 03:17:08;;;;;;;31.47;25.20;;;;;;;7.89;100.00;102176.97;2070845;28;20185;-69
2022/11/10 03:18:09;;;;;;;28.50;23.73;;;;;;;7.90;100.00;102182.09;2071255;28;20274;-69
2022/11/10 03:19:09;;;;;;;28.07;22.63;;;;;;;7.89;100.00;102186.03;2071071;28;20228;-69
2022/11/10 03:20:10;;;;;;;26.33;22.77;;;;;;;7.92;100.00;102178.97;2070488;28;20224;-69
2022/11/10 03:21:10;;;;;;;29.13;24.30;;;;;;;7.94;100.00;102182.16;2071379;28;20554;-69
2022/11/10 03:22:11;;;;;;;31.57;25.50;;;;;;;6.72;100.00;101991.91;2071372;28;20187;-69
2022/11/10 03:23:11;;;;;;;31.47;24.60;;;;;;;7.98;100.00;102186.53;2071180;28;20188;-69
2022/11/10 03:24:12;;;;;;;26.43;22.93;;;;;;;7.97;100.00;102184.97;2070637;28;20197;-69
2022/11/10 03:25:12;;;;;;;26.47;21.50;;;;;;;7.98;100.00;102183.78;2070923;28;20192;-69
2022/11/10 03:26:13;;;;;;;25.00;20.80;;;;;;;7.97;100.00;102184.16;2069848;28;20249;-69
2022/11/10 03:27:13;;;;;;;25.97;21.97;;;;;;;7.93;100.00;102181.38;2070596;28;20570;-69
2022/11/10 03:28:14;;;;;;;28.27;22.10;;;;;;;7.50;100.00;102120.53;2070752;28;20216;-69
2022/11/10 03:29:14;;;;;;;29.57;21.70;;;;;;;7.93;100.00;102178.59;2070876;28;20189;-69
2022/11/10 03:30:15;;;;;;;30.03;22.30;;;;;;;7.93;100.00;102188.84;2070301;28;20199;-69
2022/11/10 03:31:15;;;;;;;27.40;21.23;;;;;;;7.90;100.00;102175.81;2071032;28;20214;-69
2022/11/10 03:32:16;;;;;;;28.37;21.93;;;;;;;7.90;100.00;102181.31;2070303;28;20608;-69
2022/11/10 03:33:16;;;;;;;28.10;21.43;;;;;;;7.89;100.00;102175.00;2071311;28;20197;-69
2022/11/10 03:34:17;;;;;;;27.20;21.90;;;;;;;7.85;100.00;102171.41;2070595;28;20194;-68
2022/11/10 03:35:18;;;;;;;27.83;22.47;;;;;;;7.89;100.00;102185.25;2070259;28;20203;-69
2022/11/10 03:36:18;;;;;;;26.83;22.87;;;;;;;7.90;100.00;102175.81;2069449;28;20441;-69
2022/11/10 03:37:18;;;;;;;28.00;22.03;;;;;;;7.29;100.00;102082.41;2070497;28;20248;-69
2022/11/10 03:38:19;;;;;;;30.77;26.33;;;;;;;7.89;100.00;102180.53;2071546;28;20189;-69
2022/11/10 03:39:19;;;;;;;32.73;27.50;;;;;;;7.93;100.00;102183.31;2071009;28;20197;-69
2022/11/10 03:40:20;;;;;;;35.90;28.00;;;;;;;7.94;100.00;102185.69;2070063;28;20196;-69
2022/11/10 03:41:20;;;;;;;36.70;28.73;;;;;;;7.92;100.00;102195.53;2071135;28;20181;-69
2022/11/10 03:42:21;;;;;;;34.40;28.20;;;;;;;7.94;100.00;102190.44;2070239;28;20577;-69
2022/11/10 03:43:21;;;;;;;27.57;24.53;;;;;;;7.68;100.00;102158.19;2070362;28;20332;-69
2022/11/10 03:44:22;;;;;;;27.17;21.93;;;;;;;7.92;100.00;102190.00;2070256;28;20177;-68
2022/11/10 03:45:22;;;;;;;30.37;23.67;;;;;;;7.87;100.00;102179.31;2070444;28;20631;-69
2022/11/10 03:46:22;;;;;;;31.30;26.00;;;;;;;7.89;100.00;102197.09;2071038;28;20174;-69
2022/11/10 03:47:23;;;;;;;28.57;23.80;;;;;;;7.89;100.00;102185.25;2070767;28;20194;-69
2022/11/10 03:48:23;;;;;;;25.67;22.07;;;;;;;7.93;100.00;102202.63;2070537;28;20197;-69
2022/11/10 03:49:24;;;;;;;27.97;21.70;;;;;;;7.95;100.00;102194.78;2070734;28;20573;-69
2022/11/10 03:50:24;;;;;;;27.00;21.70;;;;;;;7.91;100.00;102191.19;2069919;28;20265;-69
2022/11/10 03:51:24;;;;;;;24.97;22.20;;;;;;;7.96;100.00;102193.63;2070946;28;20201;-69
2022/11/10 03:52:25;;;;;;;24.03;20.70;;;;;;;7.94;100.00;102199.50;2070602;28;20749;-69
2022/11/10 03:53:25;;;;;;;25.07;21.53;;;;;;;7.87;100.00;102182.88;2070753;28;20253;-69
2022/11/10 03:54:26;;;;;;;30.93;25.73;;;;;;;7.91;100.00;102199.47;2070675;28;20190;-69
2022/11/10 03:55:26;;;;;;;32.70;26.27;;;;;;;7.92;100.00;102190.00;2070814;28;20373;-69
2022/11/10 03:56:27;;;;;;;29.37;24.37;;;;;;;7.52;100.00;102143.00;2070288;28;20213;-69
2022/11/10 03:57:27;;;;;;;27.87;23.60;;;;;;;7.88;100.00;102198.25;2070432;28;20189;-69
2022/11/10 03:58:27;;;;;;;30.03;24.70;;;;;;;7.88;100.00;102194.69;2070266;28;20635;-69
2022/11/10 03:59:28;;;;;;;29.40;25.67;;;;;;;7.24;100.00;102098.53;2070818;28;20641;-69
2022/11/10 04:00:28;;;;;;;32.47;27.10;;;;;;;7.85;100.00;102218.31;2069513;28;20229;-69
2022/11/10 04:01:29;;;;;;;25.53;22.70;;;;;;;7.82;100.00;102194.25;2071035;28;20178;-69
2022/11/10 04:02:29;;;;;;;26.07;22.17;;;;;;;7.88;100.00;102200.22;2070539;28;20229;-69
2022/11/10 04:03:30;;;;;;;29.50;24.70;;;;;;;7.76;100.00;102181.16;2071758;28;20179;-69
2022/11/10 04:08:59;;;;;;;25.20;22.15;;;;;;;7.84;100.00;102205.69;2069451;28;20288;-69
2022/11/10 04:10:00;;;;;;;31.50;25.38;;;;;;;7.84;100.00;102204.91;2070527;28;20199;-69
2022/11/10 04:11:01;;;;;;;34.28;26.90;;;;;;;7.71;100.00;102187.81;2070253;28;20205;-69
2022/11/10 04:15:58;;;;;;;27.00;22.23;;;;;;;7.86;100.00;102200.63;2070533;28;20686;-69
2022/11/10 04:16:59;;;;;;;28.77;21.03;;;;;;;7.81;100.00;102192.66;2070187;28;20585;-69
2022/11/10 04:19:19;;;;;;;26.80;21.27;;;;;;;7.90;100.00;102198.66;2071623;28;20182;-69
2022/11/10 04:20:19;;;;;;;29.07;21.60;;;;;;;7.92;100.00;102198.28;2070955;28;20651;-69
2022/11/10 04:21:20;;;;;;;28.53;21.20;;;;;;;7.80;100.00;102179.22;2072436;28;20576;-69
2022/11/10 04:23:25;;;;;;;30.80;22.30;;;;;;;7.93;100.00;102199.88;2072480;28;20260;-69
2022/11/10 04:23:40;;;;;;;25.70;21.27;;;;;;;7.94;100.00;102202.28;2072331;28;20690;-69
2022/11/10 04:24:41;;;;;;;25.60;21.53;;;;;;;7.94;100.00;102188.47;2072485;28;20586;-69
2022/11/10 04:26:27;;;;;;;26.27;22.37;;;;;;;7.94;100.00;102193.97;2072461;28;20236;-69
2022/11/10 04:27:02;;;;;;;28.40;24.15;;;;;;;7.94;100.00;102196.75;2071192;28;20193;-69
2022/11/10 04:28:02;;;;;;;28.80;22.67;;;;;;;7.94;100.00;102204.25;2071039;28;20191;-69
2022/11/10 04:29:08;;;;;;;27.27;23.83;;;;;;;7.52;100.00;102135.53;2071321;28;20185;-69
2022/11/10 04:30:09;;;;;;;26.73;22.88;;;;;;;7.94;100.00;102198.72;2071751;28;20237;-69
2022/11/10 04:31:10;;;;;;;25.60;22.30;;;;;;;7.93;100.00;102191.59;2072052;28;20265;-69
2022/11/10 04:32:10;;;;;;;24.93;22.03;;;;;;;7.94;100.00;102190.44;2073081;28;20190;-69
2022/11/10 04:33:10;;;;;;;25.93;23.13;;;;;;;7.88;100.00;102181.69;2072113;28;20209;-69
2022/11/10 04:34:14;;;;;;;30.17;23.63;;;;;;;7.93;100.00;102203.44;2072341;28;20583;-69
2022/11/10 04:35:14;;;;;;;30.58;23.65;;;;;;;7.93;100.00;102203.44;2072344;28;20247;-69
2022/11/10 04:36:17;;;;;;;29.63;23.90;;;;;;;7.92;100.00;102206.56;2071060;28;20198;-69
2022/11/10 04:37:18;;;;;;;29.98;23.40;;;;;;;7.89;100.00;102205.34;2070355;28;20875;-69
2022/11/10 04:38:18;;;;;;;27.87;22.67;;;;;;;7.89;100.00;102207.34;2071760;28;20287;-69
2022/11/10 04:39:19;;;;;;;25.97;21.67;;;;;;;7.59;100.00;102160.44;2072182;28;20192;-69
2022/11/10 04:40:19;;;;;;;25.77;22.13;;;;;;;7.86;100.00;102205.31;2070703;28;20284;-69
2022/11/10 04:41:20;;;;;;;28.83;22.10;;;;;;;7.87;100.00;102212.44;2072846;28;20182;-69
2022/11/10 04:42:21;;;;;;;28.80;22.50;;;;;;;7.86;100.00;102211.66;2072015;28;20194;-69
2022/11/10 04:43:21;;;;;;;26.53;22.30;;;;;;;7.17;100.00;102096.44;2079545;28;20193;-69
2022/11/10 04:44:22;;;;;;;26.07;22.90;;;;;;;7.85;100.00;102200.97;2079983;28;20193;-69
2022/11/10 04:45:22;;;;;;;28.63;25.03;;;;;;;7.79;100.00;102203.25;2072340;28;20296;-69
2022/11/10 04:46:29;;;;;;;24.87;21.57;;;;;;;7.87;100.00;102204.94;2071790;28;20197;-69
2022/11/10 04:47:29;;;;;;;25.60;20.83;;;;;;;7.87;100.00;102204.16;2072034;28;20191;-69
2022/11/10 04:48:31;;;;;;;25.10;21.33;;;;;;;7.86;100.00;102208.91;2071218;28;20193;-69
2022/11/10 04:49:31;;;;;;;26.15;21.25;;;;;;;7.85;100.00;102212.03;2071803;28;20621;-69
2022/11/10 04:50:33;;;;;;;25.57;21.87;;;;;;;7.32;100.00;102128.56;2070977;28;20258;-69
2022/11/10 04:51:36;;;;;;;24.33;20.85;;;;;;;7.85;100.00;102209.25;2072612;28;20619;-69